الصفحة الرئيسية
METAR-TAF:

METAR-TAF

مطار :

مطار مورتالا محمد الدولي

لاغوس, نيجيريا

دائرة عرض: 06-35N, خط طول: 003-20E, ارتفاع: 40 متر

METAR: مفقودة

زمن: 17:19 (16:19 UTC)

توقعات

تاريخ ووقت الإصدار 36ساعات و 29 دقيقة قبل الساعة 03:50UTC
التوقعات صالحة من23 الساعة 06 UTC إلى 24 الساعة 12 UTC
ريح 2 عقدةمن اتجاهات متغيرة
الرؤية 10 كم أو أكثر
غيوم قليلة على ارتفاع 1100 قدم
أصبح
من 23 الساعة 08 UTC إلى 23 الساعة 10 UTC
ريح 10 عقدة من الجنوب الغربي
غيوم مفككة على ارتفاع 1400 قدم
غيوم قليلة على ارتفاع 2000 قدم, مزنة ركامية.
مؤقت
من 23 الساعة 14 UTC إلى 23 الساعة 18 UTC
غيوم متفرقة على ارتفاع 1400 قدم
غيوم قليلة على ارتفاع 2000 قدم, مزنة ركامية.
عاصفة رعدية
أصبح
من 23 الساعة 18 UTC إلى 23 الساعة 20 UTC
ريح 2 عقدةمن اتجاهات متغيرة
غيوم قليلة على ارتفاع 1200 قدم

TAF: DNMM 230350Z 2306/2412 VRB02KT 9999 FEW011 BECMG 2308/2310 23010KT BKN014 FEW020CB TEMPO 2314/2318 TS SCT014 FEW020CB BECMG 2318/2320 VRB02KT FEW012

أرصاد الطقس والتوقعات من أكثر من 4000 مطار (تقارير الطقس للمطار METAR والتنبؤ بالطقس بالمطارTAF).

المحطات المتاحة هي النقط الصفراء والحمراء على الخريطة.

حرك المؤشر فوق النقطة لمعرفة اسم المحطة.

ثم انقر لمعرفة أرصاد وتوقعات الطقس.

لتغيير الخارطة: اضغط على الأزرار الخضراء مع رمز الصليب الأسود للتكبير. على الزر الأخضر مع شرطة للتصغير، أو على الأسهم الخضراء للخرائط المجاورة.


METAR-TAF: